sensor_id;sensor_type;location;lat;lon;timestamp;P1;durP1;ratioP1;P2;durP2;ratioP2
81821;SDS011;72257;52.384;4.882;2024-01-16T00:00:06;9.73;;;1.77;;
81821;SDS011;72257;52.384;4.882;2024-01-16T00:02:32;5.28;;;1.30;;
81821;SDS011;72257;52.384;4.882;2024-01-16T00:04:57;4.15;;;1.38;;
81821;SDS011;72257;52.384;4.882;2024-01-16T00:07:23;3.17;;;1.67;;
81821;SDS011;72257;52.384;4.882;2024-01-16T00:09:48;3.33;;;1.10;;
81821;SDS011;72257;52.384;4.882;2024-01-16T00:12:16;3.70;;;1.25;;
81821;SDS011;72257;52.384;4.882;2024-01-16T00:14:41;6.13;;;1.23;;
81821;SDS011;72257;52.384;4.882;2024-01-16T00:17:06;3.07;;;1.77;;
81821;SDS011;72257;52.384;4.882;2024-01-16T00:19:31;7.47;;;1.57;;
81821;SDS011;72257;52.384;4.882;2024-01-16T00:21:57;4.60;;;1.30;;
81821;SDS011;72257;52.384;4.882;2024-01-16T00:24:22;5.40;;;1.30;;
81821;SDS011;72257;52.384;4.882;2024-01-16T00:26:48;4.28;;;0.98;;
81821;SDS011;72257;52.384;4.882;2024-01-16T00:29:14;3.22;;;1.00;;
81821;SDS011;72257;52.384;4.882;2024-01-16T00:31:40;3.42;;;1.00;;
81821;SDS011;72257;52.384;4.882;2024-01-16T00:34:06;2.70;;;0.93;;
81821;SDS011;72257;52.384;4.882;2024-01-16T00:36:31;4.73;;;1.40;;
81821;SDS011;72257;52.384;4.882;2024-01-16T00:38:56;5.13;;;1.47;;
81821;SDS011;72257;52.384;4.882;2024-01-16T00:41:21;5.70;;;1.33;;
81821;SDS011;72257;52.384;4.882;2024-01-16T00:43:47;3.07;;;1.20;;
81821;SDS011;72257;52.384;4.882;2024-01-16T00:46:12;8.97;;;1.57;;
81821;SDS011;72257;52.384;4.882;2024-01-16T00:48:37;5.23;;;1.70;;
81821;SDS011;72257;52.384;4.882;2024-01-16T00:51:02;3.53;;;1.30;;
81821;SDS011;72257;52.384;4.882;2024-01-16T00:53:28;4.47;;;0.67;;
81821;SDS011;72257;52.384;4.882;2024-01-16T00:55:53;2.07;;;0.80;;
81821;SDS011;72257;52.384;4.882;2024-01-16T00:58:19;5.25;;;0.95;;
81821;SDS011;72257;52.384;4.882;2024-01-16T01:00:45;2.00;;;1.10;;
81821;SDS011;72257;52.384;4.882;2024-01-16T01:03:10;4.07;;;1.50;;
81821;SDS011;72257;52.384;4.882;2024-01-16T01:05:35;5.03;;;0.83;;
81821;SDS011;72257;52.384;4.882;2024-01-16T01:08:00;3.87;;;1.00;;
81821;SDS011;72257;52.384;4.882;2024-01-16T01:10:25;2.03;;;1.00;;
81821;SDS011;72257;52.384;4.882;2024-01-16T01:12:51;2.90;;;0.87;;
81821;SDS011;72257;52.384;4.882;2024-01-16T01:15:19;3.28;;;1.02;;
81821;SDS011;72257;52.384;4.882;2024-01-16T01:17:45;2.17;;;0.77;;
81821;SDS011;72257;52.384;4.882;2024-01-16T01:20:12;2.30;;;0.93;;
81821;SDS011;72257;52.384;4.882;2024-01-16T01:22:37;2.10;;;0.80;;
81821;SDS011;72257;52.384;4.882;2024-01-16T01:25:03;2.00;;;0.88;;
81821;SDS011;72257;52.384;4.882;2024-01-16T01:27:28;1.52;;;0.70;;
81821;SDS011;72257;52.384;4.882;2024-01-16T01:29:53;5.40;;;0.70;;
81821;SDS011;72257;52.384;4.882;2024-01-16T01:32:18;2.33;;;0.83;;
81821;SDS011;72257;52.384;4.882;2024-01-16T01:34:44;4.43;;;0.70;;
81821;SDS011;72257;52.384;4.882;2024-01-16T01:37:09;5.63;;;1.97;;
81821;SDS011;72257;52.384;4.882;2024-01-16T01:39:34;1.97;;;0.80;;
81821;SDS011;72257;52.384;4.882;2024-01-16T01:42:00;3.75;;;1.30;;
81821;SDS011;72257;52.384;4.882;2024-01-16T01:44:25;2.03;;;0.73;;
81821;SDS011;72257;52.384;4.882;2024-01-16T01:46:50;3.70;;;0.80;;
81821;SDS011;72257;52.384;4.882;2024-01-16T01:49:16;2.40;;;1.00;;
81821;SDS011;72257;52.384;4.882;2024-01-16T01:51:41;6.60;;;1.30;;
81821;SDS011;72257;52.384;4.882;2024-01-16T01:54:07;4.20;;;1.10;;
81821;SDS011;72257;52.384;4.882;2024-01-16T01:56:32;3.30;;;1.42;;
81821;SDS011;72257;52.384;4.882;2024-01-16T01:58:58;2.53;;;1.10;;
81821;SDS011;72257;52.384;4.882;2024-01-16T02:01:24;2.58;;;1.23;;
81821;SDS011;72257;52.384;4.882;2024-01-16T02:03:51;3.92;;;0.90;;
81821;SDS011;72257;52.384;4.882;2024-01-16T02:06:17;3.65;;;1.02;;
81821;SDS011;72257;52.384;4.882;2024-01-16T02:08:42;4.40;;;1.13;;
81821;SDS011;72257;52.384;4.882;2024-01-16T02:11:08;3.58;;;1.17;;
81821;SDS011;72257;52.384;4.882;2024-01-16T02:13:34;2.53;;;0.80;;
81821;SDS011;72257;52.384;4.882;2024-01-16T02:16:00;3.63;;;0.87;;
81821;SDS011;72257;52.384;4.882;2024-01-16T02:18:26;5.72;;;1.38;;
81821;SDS011;72257;52.384;4.882;2024-01-16T02:20:51;5.20;;;1.30;;
81821;SDS011;72257;52.384;4.882;2024-01-16T02:23:21;4.80;;;1.40;;
81821;SDS011;72257;52.384;4.882;2024-01-16T02:25:46;7.22;;;1.52;;
81821;SDS011;72257;52.384;4.882;2024-01-16T02:28:11;3.53;;;1.40;;
81821;SDS011;72257;52.384;4.882;2024-01-16T02:30:37;5.13;;;2.00;;
81821;SDS011;72257;52.384;4.882;2024-01-16T02:33:02;4.97;;;1.13;;
81821;SDS011;72257;52.384;4.882;2024-01-16T02:35:28;3.70;;;1.38;;
81821;SDS011;72257;52.384;4.882;2024-01-16T02:37:54;2.73;;;1.30;;
81821;SDS011;72257;52.384;4.882;2024-01-16T02:40:19;2.83;;;1.10;;
81821;SDS011;72257;52.384;4.882;2024-01-16T02:42:44;5.87;;;1.03;;
81821;SDS011;72257;52.384;4.882;2024-01-16T02:45:09;3.80;;;1.17;;
81821;SDS011;72257;52.384;4.882;2024-01-16T02:47:34;2.43;;;1.10;;
81821;SDS011;72257;52.384;4.882;2024-01-16T02:50:00;4.88;;;1.40;;
81821;SDS011;72257;52.384;4.882;2024-01-16T02:52:26;4.50;;;1.77;;
81821;SDS011;72257;52.384;4.882;2024-01-16T02:54:51;2.03;;;1.03;;
81821;SDS011;72257;52.384;4.882;2024-01-16T02:57:16;1.57;;;0.70;;
81821;SDS011;72257;52.384;4.882;2024-01-16T02:59:44;2.73;;;1.47;;
81821;SDS011;72257;52.384;4.882;2024-01-16T03:02:10;5.30;;;1.02;;
81821;SDS011;72257;52.384;4.882;2024-01-16T03:04:36;3.35;;;0.88;;
81821;SDS011;72257;52.384;4.882;2024-01-16T03:07:01;15.00;;;5.40;;
81821;SDS011;72257;52.384;4.882;2024-01-16T03:09:26;5.97;;;1.70;;
81821;SDS011;72257;52.384;4.882;2024-01-16T03:11:51;13.37;;;4.17;;
81821;SDS011;72257;52.384;4.882;2024-01-16T03:14:17;3.38;;;1.00;;
81821;SDS011;72257;52.384;4.882;2024-01-16T03:16:43;2.10;;;1.20;;
81821;SDS011;72257;52.384;4.882;2024-01-16T03:19:09;4.75;;;1.20;;
81821;SDS011;72257;52.384;4.882;2024-01-16T03:21:34;2.10;;;0.97;;
81821;SDS011;72257;52.384;4.882;2024-01-16T03:23:59;6.00;;;1.57;;
81821;SDS011;72257;52.384;4.882;2024-01-16T03:26:24;3.73;;;1.37;;
81821;SDS011;72257;52.384;4.882;2024-01-16T03:28:50;5.73;;;1.50;;
81821;SDS011;72257;52.384;4.882;2024-01-16T03:31:15;4.37;;;1.20;;
81821;SDS011;72257;52.384;4.882;2024-01-16T03:33:40;2.13;;;1.30;;
81821;SDS011;72257;52.384;4.882;2024-01-16T03:36:07;4.63;;;1.45;;
81821;SDS011;72257;52.384;4.882;2024-01-16T03:38:33;4.05;;;1.33;;
81821;SDS011;72257;52.384;4.882;2024-01-16T03:40:59;4.65;;;1.30;;
81821;SDS011;72257;52.384;4.882;2024-01-16T03:43:24;2.42;;;1.15;;
81821;SDS011;72257;52.384;4.882;2024-01-16T03:45:49;1.87;;;1.03;;
81821;SDS011;72257;52.384;4.882;2024-01-16T03:48:15;3.77;;;1.40;;
81821;SDS011;72257;52.384;4.882;2024-01-16T03:50:40;2.73;;;1.47;;
81821;SDS011;72257;52.384;4.882;2024-01-16T03:53:08;3.17;;;1.10;;
81821;SDS011;72257;52.384;4.882;2024-01-16T03:55:34;3.30;;;1.33;;
81821;SDS011;72257;52.384;4.882;2024-01-16T03:57:59;5.10;;;1.20;;
81821;SDS011;72257;52.384;4.882;2024-01-16T04:00:24;2.87;;;1.27;;
81821;SDS011;72257;52.384;4.882;2024-01-16T04:02:49;2.08;;;0.80;;
81821;SDS011;72257;52.384;4.882;2024-01-16T04:05:15;1.40;;;0.97;;
81821;SDS011;72257;52.384;4.882;2024-01-16T04:07:40;3.33;;;1.43;;
81821;SDS011;72257;52.384;4.882;2024-01-16T04:10:06;1.67;;;0.50;;
81821;SDS011;72257;52.384;4.882;2024-01-16T04:12:31;3.75;;;1.10;;
81821;SDS011;72257;52.384;4.882;2024-01-16T04:14:56;2.20;;;0.93;;
81821;SDS011;72257;52.384;4.882;2024-01-16T04:17:22;4.90;;;1.63;;
81821;SDS011;72257;52.384;4.882;2024-01-16T04:19:47;3.13;;;0.90;;
81821;SDS011;72257;52.384;4.882;2024-01-16T04:22:12;1.90;;;0.67;;
81821;SDS011;72257;52.384;4.882;2024-01-16T04:24:37;3.10;;;0.97;;
81821;SDS011;72257;52.384;4.882;2024-01-16T04:27:03;3.40;;;1.07;;
81821;SDS011;72257;52.384;4.882;2024-01-16T04:29:28;2.58;;;1.10;;
81821;SDS011;72257;52.384;4.882;2024-01-16T04:31:53;5.50;;;1.20;;
81821;SDS011;72257;52.384;4.882;2024-01-16T04:34:18;4.93;;;1.00;;
81821;SDS011;72257;52.384;4.882;2024-01-16T04:36:43;5.30;;;1.40;;
81821;SDS011;72257;52.384;4.882;2024-01-16T04:39:09;4.23;;;1.10;;
81821;SDS011;72257;52.384;4.882;2024-01-16T04:41:34;2.70;;;0.93;;
81821;SDS011;72257;52.384;4.882;2024-01-16T04:43:59;3.97;;;1.00;;
81821;SDS011;72257;52.384;4.882;2024-01-16T04:46:25;3.55;;;1.08;;
81821;SDS011;72257;52.384;4.882;2024-01-16T04:48:50;2.40;;;0.90;;
81821;SDS011;72257;52.384;4.882;2024-01-16T04:51:15;4.27;;;0.87;;
81821;SDS011;72257;52.384;4.882;2024-01-16T04:53:41;2.17;;;1.00;;
81821;SDS011;72257;52.384;4.882;2024-01-16T04:56:06;3.53;;;0.93;;
81821;SDS011;72257;52.384;4.882;2024-01-16T04:58:31;3.67;;;0.87;;
81821;SDS011;72257;52.384;4.882;2024-01-16T05:00:56;3.50;;;1.07;;
81821;SDS011;72257;52.384;4.882;2024-01-16T05:03:22;2.35;;;0.85;;
81821;SDS011;72257;52.384;4.882;2024-01-16T05:05:47;3.55;;;0.65;;
81821;SDS011;72257;52.384;4.882;2024-01-16T05:08:12;2.90;;;1.00;;
81821;SDS011;72257;52.384;4.882;2024-01-16T05:10:38;4.13;;;1.27;;
81821;SDS011;72257;52.384;4.882;2024-01-16T05:13:03;6.88;;;2.00;;
81821;SDS011;72257;52.384;4.882;2024-01-16T05:15:28;2.80;;;1.73;;
81821;SDS011;72257;52.384;4.882;2024-01-16T05:17:54;2.93;;;1.47;;
81821;SDS011;72257;52.384;4.882;2024-01-16T05:20:19;2.47;;;1.43;;
81821;SDS011;72257;52.384;4.882;2024-01-16T05:22:44;2.55;;;0.82;;
81821;SDS011;72257;52.384;4.882;2024-01-16T05:25:10;3.73;;;0.70;;
81821;SDS011;72257;52.384;4.882;2024-01-16T05:27:35;3.33;;;0.43;;
81821;SDS011;72257;52.384;4.882;2024-01-16T05:30:00;5.03;;;1.10;;
81821;SDS011;72257;52.384;4.882;2024-01-16T05:32:26;3.13;;;1.00;;
81821;SDS011;72257;52.384;4.882;2024-01-16T05:34:51;2.40;;;0.80;;
81821;SDS011;72257;52.384;4.882;2024-01-16T05:37:16;1.70;;;0.83;;
81821;SDS011;72257;52.384;4.882;2024-01-16T05:39:41;2.93;;;1.00;;
81821;SDS011;72257;52.384;4.882;2024-01-16T05:42:07;2.77;;;0.90;;
81821;SDS011;72257;52.384;4.882;2024-01-16T05:44:32;1.67;;;0.77;;
81821;SDS011;72257;52.384;4.882;2024-01-16T05:46:57;1.60;;;0.60;;
81821;SDS011;72257;52.384;4.882;2024-01-16T05:49:23;1.60;;;0.70;;
81821;SDS011;72257;52.384;4.882;2024-01-16T05:51:48;1.97;;;0.80;;
81821;SDS011;72257;52.384;4.882;2024-01-16T05:54:13;0.57;;;0.40;;
81821;SDS011;72257;52.384;4.882;2024-01-16T05:56:38;1.23;;;0.90;;
81821;SDS011;72257;52.384;4.882;2024-01-16T05:59:03;1.37;;;0.90;;
81821;SDS011;72257;52.384;4.882;2024-01-16T06:01:29;2.30;;;1.05;;
81821;SDS011;72257;52.384;4.882;2024-01-16T06:03:54;4.03;;;1.23;;
81821;SDS011;72257;52.384;4.882;2024-01-16T06:06:20;2.70;;;1.07;;
81821;SDS011;72257;52.384;4.882;2024-01-16T06:08:45;1.47;;;1.03;;
81821;SDS011;72257;52.384;4.882;2024-01-16T06:11:10;2.10;;;0.93;;
81821;SDS011;72257;52.384;4.882;2024-01-16T06:13:36;2.10;;;1.20;;
81821;SDS011;72257;52.384;4.882;2024-01-16T06:16:01;3.07;;;1.47;;
81821;SDS011;72257;52.384;4.882;2024-01-16T06:18:27;3.72;;;1.58;;
81821;SDS011;72257;52.384;4.882;2024-01-16T06:20:52;2.13;;;1.30;;
81821;SDS011;72257;52.384;4.882;2024-01-16T06:23:17;3.73;;;1.80;;
81821;SDS011;72257;52.384;4.882;2024-01-16T06:25:42;3.17;;;1.40;;
81821;SDS011;72257;52.384;4.882;2024-01-16T06:28:08;4.33;;;2.00;;
81821;SDS011;72257;52.384;4.882;2024-01-16T06:30:33;2.10;;;1.40;;
81821;SDS011;72257;52.384;4.882;2024-01-16T06:32:59;4.00;;;1.58;;
81821;SDS011;72257;52.384;4.882;2024-01-16T06:35:24;1.65;;;1.10;;
81821;SDS011;72257;52.384;4.882;2024-01-16T06:37:50;3.83;;;1.70;;
81821;SDS011;72257;52.384;4.882;2024-01-16T06:40:15;3.57;;;1.50;;
81821;SDS011;72257;52.384;4.882;2024-01-16T06:42:40;5.60;;;2.23;;
81821;SDS011;72257;52.384;4.882;2024-01-16T06:45:06;4.77;;;1.27;;
81821;SDS011;72257;52.384;4.882;2024-01-16T06:47:31;5.22;;;2.08;;
81821;SDS011;72257;52.384;4.882;2024-01-16T06:49:57;7.38;;;1.50;;
81821;SDS011;72257;52.384;4.882;2024-01-16T06:52:22;5.10;;;1.43;;
81821;SDS011;72257;52.384;4.882;2024-01-16T06:54:48;3.60;;;1.53;;
81821;SDS011;72257;52.384;4.882;2024-01-16T06:57:13;4.33;;;1.33;;
81821;SDS011;72257;52.384;4.882;2024-01-16T06:59:38;2.20;;;1.37;;
81821;SDS011;72257;52.384;4.882;2024-01-16T07:02:03;2.13;;;1.30;;
81821;SDS011;72257;52.384;4.882;2024-01-16T07:04:28;2.97;;;1.70;;
81821;SDS011;72257;52.384;4.882;2024-01-16T07:06:54;3.88;;;1.70;;
81821;SDS011;72257;52.384;4.882;2024-01-16T07:09:19;4.07;;;1.87;;
81821;SDS011;72257;52.384;4.882;2024-01-16T07:11:46;6.90;;;1.48;;
81821;SDS011;72257;52.384;4.882;2024-01-16T07:14:11;2.40;;;1.25;;
81821;SDS011;72257;52.384;4.882;2024-01-16T07:16:36;2.47;;;1.27;;
81821;SDS011;72257;52.384;4.882;2024-01-16T07:19:02;3.20;;;1.43;;
81821;SDS011;72257;52.384;4.882;2024-01-16T07:21:27;3.77;;;1.73;;
81821;SDS011;72257;52.384;4.882;2024-01-16T07:23:53;3.28;;;1.58;;
81821;SDS011;72257;52.384;4.882;2024-01-16T07:26:18;3.00;;;1.70;;
81821;SDS011;72257;52.384;4.882;2024-01-16T07:28:43;6.43;;;1.87;;
81821;SDS011;72257;52.384;4.882;2024-01-16T07:31:09;4.05;;;1.60;;
81821;SDS011;72257;52.384;4.882;2024-01-16T07:33:34;2.30;;;1.33;;
81821;SDS011;72257;52.384;4.882;2024-01-16T07:36:00;2.53;;;1.27;;
81821;SDS011;72257;52.384;4.882;2024-01-16T07:38:25;3.17;;;1.43;;
81821;SDS011;72257;52.384;4.882;2024-01-16T07:40:50;2.60;;;1.70;;
81821;SDS011;72257;52.384;4.882;2024-01-16T07:43:15;2.77;;;1.60;;
81821;SDS011;72257;52.384;4.882;2024-01-16T07:45:41;5.67;;;2.00;;
81821;SDS011;72257;52.384;4.882;2024-01-16T07:48:06;1.60;;;1.20;;
81821;SDS011;72257;52.384;4.882;2024-01-16T07:50:31;6.40;;;1.40;;
81821;SDS011;72257;52.384;4.882;2024-01-16T07:52:56;8.57;;;2.03;;
81821;SDS011;72257;52.384;4.882;2024-01-16T07:55:21;7.50;;;1.70;;
81821;SDS011;72257;52.384;4.882;2024-01-16T07:57:47;2.23;;;1.37;;
81821;SDS011;72257;52.384;4.882;2024-01-16T08:00:12;5.60;;;1.83;;
81821;SDS011;72257;52.384;4.882;2024-01-16T08:02:37;7.03;;;1.90;;
81821;SDS011;72257;52.384;4.882;2024-01-16T08:05:03;5.47;;;1.90;;
81821;SDS011;72257;52.384;4.882;2024-01-16T08:07:30;6.38;;;1.90;;
81821;SDS011;72257;52.384;4.882;2024-01-16T08:09:55;4.83;;;1.90;;
81821;SDS011;72257;52.384;4.882;2024-01-16T08:12:21;8.63;;;2.33;;
81821;SDS011;72257;52.384;4.882;2024-01-16T08:14:46;7.87;;;2.70;;
81821;SDS011;72257;52.384;4.882;2024-01-16T08:17:11;8.43;;;2.13;;
81821;SDS011;72257;52.384;4.882;2024-01-16T08:19:36;4.87;;;1.90;;
81821;SDS011;72257;52.384;4.882;2024-01-16T08:22:02;7.93;;;2.87;;
81821;SDS011;72257;52.384;4.882;2024-01-16T08:24:27;8.53;;;2.67;;
81821;SDS011;72257;52.384;4.882;2024-01-16T08:26:52;7.10;;;2.22;;
81821;SDS011;72257;52.384;4.882;2024-01-16T08:29:19;8.87;;;2.93;;
81821;SDS011;72257;52.384;4.882;2024-01-16T08:31:44;7.10;;;3.13;;
81821;SDS011;72257;52.384;4.882;2024-01-16T08:34:09;6.90;;;3.10;;
81821;SDS011;72257;52.384;4.882;2024-01-16T08:36:34;6.87;;;2.87;;
81821;SDS011;72257;52.384;4.882;2024-01-16T08:39:00;5.70;;;2.77;;
81821;SDS011;72257;52.384;4.882;2024-01-16T08:41:25;7.30;;;3.23;;
81821;SDS011;72257;52.384;4.882;2024-01-16T08:43:50;5.80;;;3.17;;
81821;SDS011;72257;52.384;4.882;2024-01-16T08:46:16;11.57;;;3.20;;
81821;SDS011;72257;52.384;4.882;2024-01-16T08:48:41;6.35;;;3.20;;
81821;SDS011;72257;52.384;4.882;2024-01-16T08:51:07;7.57;;;3.37;;
81821;SDS011;72257;52.384;4.882;2024-01-16T08:53:33;7.93;;;3.15;;
81821;SDS011;72257;52.384;4.882;2024-01-16T08:55:59;6.47;;;2.92;;
81821;SDS011;72257;52.384;4.882;2024-01-16T08:58:24;7.90;;;3.33;;
81821;SDS011;72257;52.384;4.882;2024-01-16T09:00:50;7.60;;;2.93;;
81821;SDS011;72257;52.384;4.882;2024-01-16T09:03:15;6.30;;;2.90;;
81821;SDS011;72257;52.384;4.882;2024-01-16T09:05:41;7.35;;;3.20;;
81821;SDS011;72257;52.384;4.882;2024-01-16T09:08:08;5.53;;;3.05;;
81821;SDS011;72257;52.384;4.882;2024-01-16T09:10:33;7.97;;;3.55;;
81821;SDS011;72257;52.384;4.882;2024-01-16T09:12:58;9.10;;;3.03;;
81821;SDS011;72257;52.384;4.882;2024-01-16T09:15:24;7.43;;;3.15;;
81821;SDS011;72257;52.384;4.882;2024-01-16T09:17:49;5.90;;;2.47;;
81821;SDS011;72257;52.384;4.882;2024-01-16T09:20:14;6.47;;;2.90;;
81821;SDS011;72257;52.384;4.882;2024-01-16T09:22:40;7.17;;;2.90;;
81821;SDS011;72257;52.384;4.882;2024-01-16T09:25:05;6.50;;;2.27;;
81821;SDS011;72257;52.384;4.882;2024-01-16T09:27:30;5.95;;;2.50;;
81821;SDS011;72257;52.384;4.882;2024-01-16T09:29:55;5.57;;;2.00;;
81821;SDS011;72257;52.384;4.882;2024-01-16T09:32:21;5.47;;;2.73;;
81821;SDS011;72257;52.384;4.882;2024-01-16T09:34:46;7.37;;;2.40;;
81821;SDS011;72257;52.384;4.882;2024-01-16T09:37:11;7.50;;;2.00;;
81821;SDS011;72257;52.384;4.882;2024-01-16T09:39:39;3.83;;;1.52;;
81821;SDS011;72257;52.384;4.882;2024-01-16T09:42:04;2.03;;;1.50;;
81821;SDS011;72257;52.384;4.882;2024-01-16T09:44:30;3.47;;;1.50;;
81821;SDS011;72257;52.384;4.882;2024-01-16T09:46:55;3.17;;;1.27;;
81821;SDS011;72257;52.384;4.882;2024-01-16T09:49:22;3.47;;;1.38;;
81821;SDS011;72257;52.384;4.882;2024-01-16T09:51:48;2.05;;;1.58;;
81821;SDS011;72257;52.384;4.882;2024-01-16T09:54:13;3.63;;;1.20;;
81821;SDS011;72257;52.384;4.882;2024-01-16T09:56:40;2.33;;;1.33;;
81821;SDS011;72257;52.384;4.882;2024-01-16T09:59:06;3.38;;;1.13;;
81821;SDS011;72257;52.384;4.882;2024-01-16T10:01:33;1.83;;;1.00;;
81821;SDS011;72257;52.384;4.882;2024-01-16T10:03:59;1.92;;;1.02;;
81821;SDS011;72257;52.384;4.882;2024-01-16T10:06:24;4.33;;;1.63;;
81821;SDS011;72257;52.384;4.882;2024-01-16T10:08:52;3.15;;;1.17;;
81821;SDS011;72257;52.384;4.882;2024-01-16T10:11:17;8.20;;;1.33;;
81821;SDS011;72257;52.384;4.882;2024-01-16T10:13:43;2.83;;;1.30;;
81821;SDS011;72257;52.384;4.882;2024-01-16T10:16:09;2.00;;;1.15;;
81821;SDS011;72257;52.384;4.882;2024-01-16T10:18:34;2.53;;;1.10;;
81821;SDS011;72257;52.384;4.882;2024-01-16T10:20:59;4.93;;;2.13;;
81821;SDS011;72257;52.384;4.882;2024-01-16T10:23:25;2.05;;;1.27;;
81821;SDS011;72257;52.384;4.882;2024-01-16T10:28:31;2.28;;;1.20;;
81821;SDS011;72257;52.384;4.882;2024-01-16T10:31:16;2.88;;;1.30;;
81821;SDS011;72257;52.384;4.882;2024-01-16T10:33:41;1.55;;;0.90;;
81821;SDS011;72257;52.384;4.882;2024-01-16T10:36:07;3.00;;;1.10;;
81821;SDS011;72257;52.384;4.882;2024-01-16T10:38:33;1.33;;;1.20;;
81821;SDS011;72257;52.384;4.882;2024-01-16T10:41:04;5.63;;;1.67;;
81821;SDS011;72257;52.384;4.882;2024-01-16T10:45:58;3.20;;;1.00;;
81821;SDS011;72257;52.384;4.882;2024-01-16T10:48:31;8.50;;;3.33;;
81821;SDS011;72257;52.384;4.882;2024-01-16T10:50:56;4.03;;;1.40;;
81821;SDS011;72257;52.384;4.882;2024-01-16T10:53:22;2.60;;;1.00;;
81821;SDS011;72257;52.384;4.882;2024-01-16T10:55:50;3.95;;;1.00;;
81821;SDS011;72257;52.384;4.882;2024-01-16T10:58:21;1.98;;;0.85;;
81821;SDS011;72257;52.384;4.882;2024-01-16T11:00:47;1.45;;;0.70;;
81821;SDS011;72257;52.384;4.882;2024-01-16T11:03:18;6.22;;;1.20;;
81821;SDS011;72257;52.384;4.882;2024-01-16T11:05:46;3.90;;;1.60;;
81821;SDS011;72257;52.384;4.882;2024-01-16T11:08:12;7.82;;;1.50;;
81821;SDS011;72257;52.384;4.882;2024-01-16T11:10:38;3.03;;;1.00;;
81821;SDS011;72257;52.384;4.882;2024-01-16T11:13:04;1.67;;;1.05;;
81821;SDS011;72257;52.384;4.882;2024-01-16T11:15:30;3.33;;;1.35;;
81821;SDS011;72257;52.384;4.882;2024-01-16T11:17:56;3.38;;;1.10;;
81821;SDS011;72257;52.384;4.882;2024-01-16T11:20:22;2.45;;;1.25;;
81821;SDS011;72257;52.384;4.882;2024-01-16T11:22:48;2.13;;;1.20;;
81821;SDS011;72257;52.384;4.882;2024-01-16T11:25:14;1.88;;;1.00;;
81821;SDS011;72257;52.384;4.882;2024-01-16T11:27:41;4.85;;;0.90;;
81821;SDS011;72257;52.384;4.882;2024-01-16T11:30:07;1.38;;;0.90;;
81821;SDS011;72257;52.384;4.882;2024-01-16T11:32:33;1.92;;;1.20;;
81821;SDS011;72257;52.384;4.882;2024-01-16T11:34:59;3.88;;;1.15;;
81821;SDS011;72257;52.384;4.882;2024-01-16T11:37:26;5.57;;;1.20;;
81821;SDS011;72257;52.384;4.882;2024-01-16T11:42:36;3.63;;;1.00;;
81821;SDS011;72257;52.384;4.882;2024-01-16T11:45:07;1.05;;;0.80;;
81821;SDS011;72257;52.384;4.882;2024-01-16T11:47:33;2.70;;;1.25;;
81821;SDS011;72257;52.384;4.882;2024-01-16T11:50:12;1.77;;;1.00;;
81821;SDS011;72257;52.384;4.882;2024-01-16T11:52:40;3.25;;;1.20;;
81821;SDS011;72257;52.384;4.882;2024-01-16T11:55:26;3.45;;;1.08;;
81821;SDS011;72257;52.384;4.882;2024-01-16T11:58:35;4.72;;;1.20;;
81821;SDS011;72257;52.384;4.882;2024-01-16T12:00:40;3.83;;;1.00;;
81821;SDS011;72257;52.384;4.882;2024-01-16T12:03:06;4.03;;;1.27;;
81821;SDS011;72257;52.384;4.882;2024-01-16T12:05:31;2.25;;;0.98;;
81821;SDS011;72257;52.384;4.882;2024-01-16T12:07:57;4.32;;;1.63;;
81821;SDS011;72257;52.384;4.882;2024-01-16T12:10:23;2.95;;;1.02;;
81821;SDS011;72257;52.384;4.882;2024-01-16T12:12:49;4.80;;;1.15;;
81821;SDS011;72257;52.384;4.882;2024-01-16T12:15:15;1.65;;;0.90;;
81821;SDS011;72257;52.384;4.882;2024-01-16T12:17:56;2.92;;;1.02;;
81821;SDS011;72257;52.384;4.882;2024-01-16T12:20:21;3.15;;;1.48;;
81821;SDS011;72257;52.384;4.882;2024-01-16T12:22:56;4.03;;;1.00;;
81821;SDS011;72257;52.384;4.882;2024-01-16T12:25:22;5.07;;;1.60;;
81821;SDS011;72257;52.384;4.882;2024-01-16T12:27:54;1.75;;;1.17;;
81821;SDS011;72257;52.384;4.882;2024-01-16T12:30:19;2.63;;;1.05;;
81821;SDS011;72257;52.384;4.882;2024-01-16T12:32:44;2.60;;;0.73;;
81821;SDS011;72257;52.384;4.882;2024-01-16T12:35:10;2.33;;;1.10;;
81821;SDS011;72257;52.384;4.882;2024-01-16T12:37:35;2.00;;;1.00;;
81821;SDS011;72257;52.384;4.882;2024-01-16T12:40:00;3.13;;;1.33;;
81821;SDS011;72257;52.384;4.882;2024-01-16T12:42:25;3.60;;;1.30;;
81821;SDS011;72257;52.384;4.882;2024-01-16T12:44:51;1.98;;;1.15;;
81821;SDS011;72257;52.384;4.882;2024-01-16T12:47:16;1.97;;;1.40;;
81821;SDS011;72257;52.384;4.882;2024-01-16T12:49:44;2.55;;;1.40;;
81821;SDS011;72257;52.384;4.882;2024-01-16T12:52:19;1.57;;;0.93;;
81821;SDS011;72257;52.384;4.882;2024-01-16T12:54:45;2.65;;;0.90;;
81821;SDS011;72257;52.384;4.882;2024-01-16T12:57:16;1.63;;;0.80;;
81821;SDS011;72257;52.384;4.882;2024-01-16T12:59:41;1.75;;;1.40;;
81821;SDS011;72257;52.384;4.882;2024-01-16T13:02:06;0.80;;;0.77;;
81821;SDS011;72257;52.384;4.882;2024-01-16T13:04:31;4.70;;;1.13;;
81821;SDS011;72257;52.384;4.882;2024-01-16T13:07:03;3.33;;;1.10;;
81821;SDS011;72257;52.384;4.882;2024-01-16T13:09:28;1.35;;;0.88;;
81821;SDS011;72257;52.384;4.882;2024-01-16T13:11:54;3.37;;;1.40;;
81821;SDS011;72257;52.384;4.882;2024-01-16T13:14:23;2.35;;;1.23;;
81821;SDS011;72257;52.384;4.882;2024-01-16T13:16:49;3.50;;;0.90;;
81821;SDS011;72257;52.384;4.882;2024-01-16T13:19:18;3.65;;;1.13;;
81821;SDS011;72257;52.384;4.882;2024-01-16T13:21:44;1.85;;;1.00;;
81821;SDS011;72257;52.384;4.882;2024-01-16T13:24:09;1.70;;;0.70;;
81821;SDS011;72257;52.384;4.882;2024-01-16T13:26:35;2.93;;;1.13;;
81821;SDS011;72257;52.384;4.882;2024-01-16T13:29:00;2.70;;;1.00;;
81821;SDS011;72257;52.384;4.882;2024-01-16T13:31:26;4.60;;;1.30;;
81821;SDS011;72257;52.384;4.882;2024-01-16T13:33:51;2.70;;;1.10;;
81821;SDS011;72257;52.384;4.882;2024-01-16T13:36:16;2.20;;;1.00;;
81821;SDS011;72257;52.384;4.882;2024-01-16T13:38:41;1.53;;;0.93;;
81821;SDS011;72257;52.384;4.882;2024-01-16T13:41:07;4.47;;;1.40;;
81821;SDS011;72257;52.384;4.882;2024-01-16T13:43:32;14.25;;;4.35;;
81821;SDS011;72257;52.384;4.882;2024-01-16T13:45:57;4.67;;;1.50;;
81821;SDS011;72257;52.384;4.882;2024-01-16T13:48:23;7.07;;;2.67;;
81821;SDS011;72257;52.384;4.882;2024-01-16T13:50:48;1.83;;;1.73;;
81821;SDS011;72257;52.384;4.882;2024-01-16T13:53:13;3.97;;;1.20;;
81821;SDS011;72257;52.384;4.882;2024-01-16T13:55:41;3.30;;;1.10;;
81821;SDS011;72257;52.384;4.882;2024-01-16T13:58:07;3.10;;;1.30;;
81821;SDS011;72257;52.384;4.882;2024-01-16T14:00:32;3.47;;;1.02;;
81821;SDS011;72257;52.384;4.882;2024-01-16T14:02:58;2.72;;;0.90;;
81821;SDS011;72257;52.384;4.882;2024-01-16T14:05:23;6.03;;;1.70;;
81821;SDS011;72257;52.384;4.882;2024-01-16T14:07:51;1.73;;;1.02;;
81821;SDS011;72257;52.384;4.882;2024-01-16T14:10:17;3.45;;;1.20;;
81821;SDS011;72257;52.384;4.882;2024-01-16T14:12:43;2.35;;;1.02;;
81821;SDS011;72257;52.384;4.882;2024-01-16T14:15:10;1.98;;;0.93;;
81821;SDS011;72257;52.384;4.882;2024-01-16T14:17:41;4.28;;;1.05;;
81821;SDS011;72257;52.384;4.882;2024-01-16T14:20:06;3.13;;;1.65;;
81821;SDS011;72257;52.384;4.882;2024-01-16T14:22:35;2.97;;;1.20;;
81821;SDS011;72257;52.384;4.882;2024-01-16T14:25:02;2.72;;;1.30;;
81821;SDS011;72257;52.384;4.882;2024-01-16T14:27:29;3.25;;;1.17;;
81821;SDS011;72257;52.384;4.882;2024-01-16T14:29:55;1.77;;;0.70;;
81821;SDS011;72257;52.384;4.882;2024-01-16T14:32:20;2.13;;;1.10;;
81821;SDS011;72257;52.384;4.882;2024-01-16T14:34:45;2.00;;;1.00;;
81821;SDS011;72257;52.384;4.882;2024-01-16T14:37:10;3.23;;;1.20;;
81821;SDS011;72257;52.384;4.882;2024-01-16T14:39:36;8.93;;;1.05;;
81821;SDS011;72257;52.384;4.882;2024-01-16T14:42:02;4.43;;;1.03;;
81821;SDS011;72257;52.384;4.882;2024-01-16T14:44:27;3.50;;;1.05;;
81821;SDS011;72257;52.384;4.882;2024-01-16T14:46:53;2.90;;;0.90;;